createdAt,value
2017-12-31T00:01:31.011Z,88.40
2017-12-31T00:03:58.502Z,88.20
2017-12-31T00:06:26.775Z,88.00
2017-12-31T00:08:55.050Z,88.00
2017-12-31T00:11:23.310Z,87.70
2017-12-31T00:13:50.857Z,87.60
2017-12-31T00:16:18.330Z,87.60
2017-12-31T00:18:45.839Z,88.20
2017-12-31T00:21:13.450Z,89.40
2017-12-31T00:23:41.855Z,90.20
2017-12-31T00:26:10.106Z,90.00
2017-12-31T00:28:37.619Z,90.00
2017-12-31T00:31:05.126Z,89.70
2017-12-31T00:33:33.383Z,88.50
2017-12-31T00:36:00.878Z,88.40
2017-12-31T00:38:29.134Z,90.00
2017-12-31T00:40:56.630Z,90.00
2017-12-31T00:43:24.138Z,90.50
2017-12-31T00:45:51.634Z,90.80
2017-12-31T00:48:19.146Z,90.90
2017-12-31T00:50:46.641Z,91.00
2017-12-31T00:53:14.903Z,91.00
2017-12-31T00:55:42.390Z,91.00
2017-12-31T00:58:09.909Z,90.80
2017-12-31T01:00:37.460Z,90.80
2017-12-31T01:03:04.932Z,90.60
2017-12-31T01:05:32.447Z,90.70
2017-12-31T01:07:59.952Z,91.00
2017-12-31T01:10:28.215Z,91.70
2017-12-31T01:12:55.711Z,91.40
2017-12-31T01:15:23.230Z,91.50
2017-12-31T01:17:50.731Z,91.70
2017-12-31T01:20:18.230Z,91.80
2017-12-31T01:22:45.722Z,92.00
2017-12-31T01:25:13.246Z,92.00
2017-12-31T01:27:40.959Z,92.00
2017-12-31T01:30:09.219Z,92.30
2017-12-31T01:32:37.478Z,92.50
2017-12-31T01:35:04.966Z,92.50
2017-12-31T01:37:33.238Z,92.60
2017-12-31T01:40:01.510Z,92.90
2017-12-31T01:42:29.778Z,93.10
2017-12-31T01:44:57.292Z,93.10
2017-12-31T01:47:24.785Z,93.10
2017-12-31T01:49:52.291Z,93.30
2017-12-31T01:52:19.790Z,93.60
2017-12-31T01:54:47.295Z,93.60
2017-12-31T01:57:15.560Z,93.40
2017-12-31T01:59:43.826Z,93.40
2017-12-31T02:02:11.317Z,93.40
2017-12-31T02:04:38.815Z,93.70
2017-12-31T02:07:06.315Z,93.60
2017-12-31T02:09:34.790Z,93.10
2017-12-31T02:12:03.274Z,93.20
2017-12-31T02:14:31.542Z,93.60
2017-12-31T02:16:59.810Z,94.10
2017-12-31T02:19:28.084Z,94.60
2017-12-31T02:21:55.762Z,94.60
2017-12-31T02:24:24.018Z,94.50
2017-12-31T02:26:51.524Z,94.40
2017-12-31T02:29:19.035Z,94.20
2017-12-31T02:31:46.543Z,94.40
2017-12-31T02:34:14.059Z,94.30
2017-12-31T02:36:43.053Z,94.20
2017-12-31T02:39:10.562Z,94.20
2017-12-31T02:41:38.058Z,94.30
2017-12-31T02:44:05.743Z,93.90
2017-12-31T02:46:34.004Z,93.40
2017-12-31T02:49:01.503Z,93.30
2017-12-31T02:51:29.015Z,93.30
2017-12-31T02:53:56.533Z,92.70
2017-12-31T02:56:24.025Z,93.10
2017-12-31T02:58:51.518Z,92.60
2017-12-31T03:01:19.774Z,92.30
2017-12-31T03:03:47.310Z,92.30
2017-12-31T03:06:14.810Z,92.60
2017-12-31T03:08:43.074Z,92.20
2017-12-31T03:11:11.351Z,92.30
2017-12-31T03:13:39.619Z,92.20
2017-12-31T03:16:07.115Z,92.20
2017-12-31T03:18:34.607Z,92.10
2017-12-31T03:21:02.103Z,91.80
2017-12-31T03:23:30.374Z,91.90
2017-12-31T03:25:58.662Z,91.80
2017-12-31T03:28:26.922Z,91.60
2017-12-31T03:30:54.420Z,91.60
2017-12-31T03:33:21.941Z,91.80
2017-12-31T03:35:50.231Z,91.30
2017-12-31T03:38:18.491Z,91.20
2017-12-31T03:40:45.998Z,91.20
2017-12-31T03:43:13.599Z,91.50
2017-12-31T03:45:41.098Z,91.00
2017-12-31T03:48:08.596Z,91.00
2017-12-31T03:50:36.106Z,91.00
2017-12-31T03:53:04.366Z,91.00
2017-12-31T03:55:32.626Z,91.00
2017-12-31T03:58:00.139Z,91.00
2017-12-31T04:00:27.642Z,90.90
2017-12-31T04:02:55.136Z,91.00
2017-12-31T04:05:23.399Z,91.10
2017-12-31T04:07:51.674Z,91.10
2017-12-31T04:10:19.946Z,91.10
2017-12-31T04:12:47.440Z,91.10
2017-12-31T04:15:15.051Z,91.00
2017-12-31T04:17:42.550Z,91.10
2017-12-31T04:20:10.048Z,91.30
2017-12-31T04:22:37.554Z,91.20
2017-12-31T04:25:05.823Z,91.40
2017-12-31T04:27:34.095Z,91.40
2017-12-31T04:30:02.362Z,91.60
2017-12-31T04:32:29.871Z,91.50
2017-12-31T04:34:57.370Z,91.40
2017-12-31T04:37:24.886Z,91.40
2017-12-31T04:39:52.386Z,91.40
2017-12-31T04:42:19.892Z,91.50
2017-12-31T04:44:47.382Z,91.50
2017-12-31T04:47:14.886Z,91.40
2017-12-31T04:49:43.159Z,91.40
2017-12-31T04:52:11.427Z,91.50
2017-12-31T04:54:38.920Z,91.50
2017-12-31T04:57:06.427Z,91.20
2017-12-31T04:59:33.927Z,91.00
2017-12-31T05:02:01.502Z,91.10
2017-12-31T05:04:29.053Z,91.10
2017-12-31T05:06:56.551Z,91.00
2017-12-31T05:09:24.047Z,90.90
2017-12-31T05:11:52.322Z,90.80
2017-12-31T05:14:20.598Z,90.80
2017-12-31T05:16:48.866Z,91.00
2017-12-31T05:19:17.130Z,90.50
2017-12-31T05:21:44.626Z,90.80
2017-12-31T05:24:12.131Z,90.70
2017-12-31T05:26:39.647Z,90.70
2017-12-31T05:29:07.143Z,90.40
2017-12-31T05:31:34.650Z,90.30
2017-12-31T05:34:02.919Z,90.30
2017-12-31T05:36:31.197Z,90.40
2017-12-31T05:38:59.464Z,90.40
2017-12-31T05:41:27.957Z,90.30
2017-12-31T05:43:56.213Z,90.10
2017-12-31T05:46:23.710Z,90.10
2017-12-31T05:48:51.215Z,90.00
2017-12-31T05:51:18.731Z,90.10
2017-12-31T05:53:46.221Z,90.00
2017-12-31T05:56:13.724Z,89.70
2017-12-31T05:58:41.991Z,89.40
2017-12-31T06:01:10.293Z,89.20
2017-12-31T06:03:37.807Z,89.20
2017-12-31T06:06:05.319Z,89.10
2017-12-31T06:08:32.822Z,89.40
2017-12-31T06:11:00.334Z,89.20
2017-12-31T06:13:27.850Z,89.00
2017-12-31T06:15:55.370Z,89.00
2017-12-31T06:18:22.874Z,88.70
2017-12-31T06:20:51.148Z,88.70
2017-12-31T06:23:18.658Z,88.60
2017-12-31T06:25:46.166Z,88.50
2017-12-31T06:28:14.446Z,89.30
2017-12-31T06:30:42.934Z,88.40
2017-12-31T06:33:11.198Z,88.20
2017-12-31T06:35:39.480Z,89.00
2017-12-31T06:38:07.756Z,88.90
2017-12-31T06:40:36.018Z,88.70
2017-12-31T06:43:03.542Z,88.70
2017-12-31T06:45:31.047Z,88.70
2017-12-31T06:47:59.322Z,88.80
2017-12-31T06:50:27.598Z,88.60
2017-12-31T06:52:55.870Z,88.00
2017-12-31T06:55:23.371Z,88.00
2017-12-31T06:57:50.886Z,88.40
2017-12-31T07:00:24.859Z,87.40
2017-12-31T07:02:52.370Z,87.60
2017-12-31T07:05:20.751Z,86.90
2017-12-31T07:07:49.014Z,86.70
2017-12-31T07:10:17.314Z,86.00
2017-12-31T07:12:44.837Z,86.70
2017-12-31T07:15:12.355Z,85.90
2017-12-31T07:17:39.860Z,85.50
2017-12-31T07:20:07.370Z,85.50
2017-12-31T07:22:34.871Z,85.30
2017-12-31T07:25:02.371Z,85.00
2017-12-31T07:27:29.872Z,83.80
2017-12-31T07:29:57.570Z,83.20
2017-12-31T07:32:25.850Z,82.90
2017-12-31T07:34:54.134Z,82.60
2017-12-31T07:37:22.398Z,82.30
2017-12-31T07:39:50.703Z,82.10
2017-12-31T07:42:18.226Z,82.10
2017-12-31T07:44:45.725Z,81.70
2017-12-31T07:47:13.239Z,81.20
2017-12-31T07:49:41.506Z,81.50
2017-12-31T07:52:09.004Z,80.60
2017-12-31T07:54:36.507Z,80.40
2017-12-31T07:57:04.013Z,79.80
2017-12-31T07:59:31.662Z,79.70
2017-12-31T08:01:59.942Z,79.60
2017-12-31T08:04:28.248Z,79.60
2017-12-31T08:06:55.758Z,79.60
2017-12-31T08:09:23.439Z,78.90
2017-12-31T08:11:51.706Z,79.00
2017-12-31T08:14:19.967Z,78.70
2017-12-31T08:16:47.466Z,78.60
2017-12-31T08:19:14.984Z,78.70
2017-12-31T08:21:42.524Z,79.20
2017-12-31T08:24:09.999Z,78.40
2017-12-31T08:26:37.522Z,78.10
2017-12-31T08:29:05.019Z,77.50
2017-12-31T08:31:32.706Z,77.10
2017-12-31T08:34:00.971Z,76.20
2017-12-31T08:36:29.250Z,76.00
2017-12-31T08:38:57.510Z,75.80
2017-12-31T08:41:25.007Z,75.90
2017-12-31T08:43:52.522Z,75.60
2017-12-31T08:46:20.033Z,74.70
2017-12-31T08:48:47.667Z,74.60
2017-12-31T08:51:15.958Z,74.70
2017-12-31T08:53:43.458Z,74.50
2017-12-31T08:56:10.967Z,74.00
2017-12-31T08:58:39.230Z,73.70
2017-12-31T09:01:07.512Z,73.90
2017-12-31T09:03:35.802Z,73.90
2017-12-31T09:06:03.311Z,73.90
2017-12-31T09:08:30.826Z,73.70
2017-12-31T09:10:58.331Z,73.20
2017-12-31T09:13:25.855Z,72.60
2017-12-31T09:15:53.352Z,73.00
2017-12-31T09:18:20.850Z,72.70
2017-12-31T09:20:48.371Z,72.40
2017-12-31T09:23:15.871Z,72.50
2017-12-31T09:25:43.390Z,71.80
2017-12-31T09:28:10.895Z,72.00
2017-12-31T09:30:38.395Z,71.80
2017-12-31T09:33:06.102Z,71.50
2017-12-31T09:35:34.374Z,71.30
2017-12-31T09:38:02.644Z,71.70
2017-12-31T09:40:30.938Z,71.70
2017-12-31T09:42:58.444Z,71.70
2017-12-31T09:45:25.946Z,71.30
2017-12-31T09:47:54.230Z,70.70
2017-12-31T09:50:21.737Z,70.70
2017-12-31T09:52:49.323Z,70.60
2017-12-31T09:55:16.825Z,70.60
2017-12-31T09:57:44.483Z,70.00
2017-12-31T10:00:11.986Z,70.60
2017-12-31T10:02:39.538Z,70.40
2017-12-31T10:05:07.048Z,70.20
2017-12-31T10:07:34.569Z,70.20
2017-12-31T10:10:02.066Z,69.80
2017-12-31T10:12:30.844Z,70.50
2017-12-31T10:14:59.106Z,70.50
2017-12-31T10:17:27.381Z,70.30
2017-12-31T10:19:55.672Z,71.20
2017-12-31T10:22:23.962Z,70.30
2017-12-31T10:24:51.475Z,70.30
2017-12-31T10:27:19.741Z,70.40
2017-12-31T10:29:47.245Z,70.50
2017-12-31T10:32:15.512Z,70.00
2017-12-31T10:34:43.780Z,70.10
2017-12-31T10:37:12.095Z,69.20
2017-12-31T10:39:39.732Z,69.20
2017-12-31T10:42:08.035Z,68.40
2017-12-31T10:44:35.542Z,68.40
2017-12-31T10:47:03.054Z,69.10
2017-12-31T10:49:30.559Z,68.40
2017-12-31T10:51:58.061Z,67.70
2017-12-31T10:54:25.566Z,67.20
2017-12-31T10:56:53.267Z,66.40
2017-12-31T10:59:21.566Z,66.20
2017-12-31T11:01:49.073Z,66.30
2017-12-31T11:04:16.574Z,66.00
2017-12-31T11:06:44.099Z,65.80
2017-12-31T11:09:11.655Z,65.30
2017-12-31T11:11:39.156Z,65.10
2017-12-31T11:14:06.690Z,64.90
2017-12-31T11:16:34.958Z,64.20
2017-12-31T11:19:02.483Z,64.20
2017-12-31T11:21:30.016Z,63.80
2017-12-31T11:23:57.655Z,63.60
2017-12-31T11:26:25.166Z,63.40
2017-12-31T11:28:52.686Z,63.40
2017-12-31T11:31:20.210Z,62.70
2017-12-31T11:33:48.478Z,62.50
2017-12-31T11:36:15.999Z,62.50
2017-12-31T11:38:43.502Z,63.20
2017-12-31T11:41:11.779Z,61.90
2017-12-31T11:43:40.074Z,61.50
2017-12-31T11:46:07.589Z,61.30
2017-12-31T11:48:35.095Z,61.70
2017-12-31T11:51:02.602Z,61.20
2017-12-31T11:53:30.134Z,61.40
2017-12-31T11:55:57.650Z,61.10
2017-12-31T11:58:25.163Z,60.30
2017-12-31T12:00:52.678Z,60.10
2017-12-31T12:03:20.938Z,59.40
2017-12-31T12:05:49.934Z,57.90
2017-12-31T12:08:17.437Z,57.80
2017-12-31T12:10:44.939Z,57.50
2017-12-31T12:13:12.469Z,57.30
2017-12-31T12:15:39.998Z,56.50
2017-12-31T12:18:07.534Z,56.10
2017-12-31T12:20:35.810Z,55.10
2017-12-31T12:23:04.107Z,55.10
2017-12-31T12:25:31.622Z,55.70
2017-12-31T12:27:59.118Z,54.80
2017-12-31T12:30:26.630Z,54.80
2017-12-31T12:32:54.126Z,53.60
2017-12-31T12:35:22.390Z,52.60
2017-12-31T12:37:49.890Z,52.50
2017-12-31T12:40:17.405Z,52.40
2017-12-31T12:42:44.905Z,52.40
2017-12-31T12:45:12.410Z,51.20
2017-12-31T12:47:39.911Z,52.00
2017-12-31T12:50:07.418Z,51.20
2017-12-31T12:52:34.936Z,49.90
2017-12-31T12:55:02.448Z,48.30
2017-12-31T12:57:29.959Z,47.80
2017-12-31T12:59:57.464Z,45.10
2017-12-31T13:02:24.972Z,42.50
2017-12-31T13:04:52.463Z,41.00
2017-12-31T13:07:19.962Z,38.80
2017-12-31T13:09:48.220Z,38.10
2017-12-31T13:12:16.614Z,37.50
2017-12-31T13:14:44.883Z,37.90
2017-12-31T13:17:13.166Z,37.20
2017-12-31T13:19:40.651Z,36.90
2017-12-31T13:22:08.150Z,36.20
2017-12-31T13:24:35.650Z,34.10
2017-12-31T13:27:03.915Z,30.90
2017-12-31T13:29:32.179Z,32.40
2017-12-31T13:31:59.698Z,32.30
2017-12-31T13:34:27.203Z,33.70
2017-12-31T13:36:55.487Z,33.20
2017-12-31T13:39:23.754Z,32.60
2017-12-31T13:41:52.014Z,30.20
2017-12-31T13:44:19.514Z,30.10
2017-12-31T13:46:47.014Z,29.70
2017-12-31T13:49:14.532Z,29.80
2017-12-31T13:51:42.050Z,29.30
2017-12-31T13:54:09.556Z,30.70
2017-12-31T13:56:37.083Z,32.80
2017-12-31T13:59:05.359Z,38.60
2017-12-31T14:01:33.623Z,40.10
2017-12-31T14:04:01.123Z,40.00
2017-12-31T14:06:28.622Z,42.00
2017-12-31T14:08:56.129Z,43.40
2017-12-31T14:11:23.647Z,45.20
2017-12-31T14:13:51.143Z,45.90
2017-12-31T14:16:19.432Z,48.00
2017-12-31T14:18:46.938Z,47.90
2017-12-31T14:21:15.202Z,49.50
2017-12-31T14:23:42.702Z,49.60
2017-12-31T14:26:10.982Z,50.80
2017-12-31T14:28:39.900Z,51.50
2017-12-31T14:31:07.415Z,51.50
2017-12-31T14:33:34.922Z,52.00
2017-12-31T14:36:02.435Z,52.50
2017-12-31T14:38:29.927Z,52.90
2017-12-31T14:40:57.431Z,53.30
2017-12-31T14:43:24.925Z,53.30
2017-12-31T14:45:53.191Z,53.50
2017-12-31T14:48:21.482Z,53.50
2017-12-31T14:50:49.746Z,53.70
2017-12-31T14:53:18.015Z,53.80
2017-12-31T14:55:45.513Z,53.80
2017-12-31T14:58:13.084Z,53.80
2017-12-31T15:00:40.588Z,53.80
2017-12-31T15:03:08.872Z,54.10
2017-12-31T15:05:37.150Z,54.00
2017-12-31T15:08:05.419Z,54.10
2017-12-31T15:10:32.919Z,54.00
2017-12-31T15:13:00.435Z,54.10
2017-12-31T15:15:27.937Z,54.30
2017-12-31T15:17:55.456Z,54.90
2017-12-31T15:20:22.966Z,54.60
2017-12-31T15:22:50.462Z,55.30
2017-12-31T15:25:18.748Z,55.50
2017-12-31T15:27:47.034Z,55.40
2017-12-31T15:30:15.370Z,55.20
2017-12-31T15:32:42.886Z,55.20
2017-12-31T15:35:10.537Z,55.60
2017-12-31T15:37:38.202Z,55.70
2017-12-31T15:40:06.488Z,56.00
2017-12-31T15:42:33.988Z,56.00
2017-12-31T15:45:01.487Z,56.20
2017-12-31T15:47:29.778Z,56.40
2017-12-31T15:49:57.350Z,56.40
2017-12-31T15:52:24.867Z,56.40
2017-12-31T15:54:52.391Z,56.60
2017-12-31T15:57:20.004Z,56.90
2017-12-31T15:59:47.865Z,56.60
2017-12-31T16:02:15.564Z,56.90
2017-12-31T16:04:43.201Z,57.10
2017-12-31T16:07:10.870Z,57.30
2017-12-31T16:09:39.076Z,57.80
2017-12-31T16:12:06.717Z,58.10
2017-12-31T16:14:34.320Z,58.40
2017-12-31T16:17:01.991Z,59.00
2017-12-31T16:19:30.528Z,60.40
2017-12-31T16:21:58.152Z,60.40
2017-12-31T16:24:25.745Z,60.80
2017-12-31T16:26:54.387Z,61.30
2017-12-31T16:29:22.822Z,61.90
2017-12-31T16:31:50.511Z,61.90
2017-12-31T16:34:19.240Z,62.20
2017-12-31T16:36:47.144Z,62.00
2017-12-31T16:39:14.740Z,62.10
2017-12-31T16:41:43.071Z,62.30
2017-12-31T16:44:10.894Z,62.30
2017-12-31T16:46:39.290Z,62.50
2017-12-31T16:49:06.911Z,62.50
2017-12-31T16:51:34.506Z,63.00
2017-12-31T16:54:02.113Z,63.80
2017-12-31T16:56:29.745Z,63.80
2017-12-31T16:58:57.558Z,64.20
2017-12-31T17:01:25.457Z,64.60
2017-12-31T17:03:53.057Z,65.10
2017-12-31T17:06:20.768Z,65.20
2017-12-31T17:08:49.217Z,65.90
2017-12-31T17:11:16.827Z,65.80
2017-12-31T17:13:44.572Z,65.90
2017-12-31T17:16:13.000Z,66.10
2017-12-31T17:18:40.612Z,66.00
2017-12-31T17:21:08.243Z,66.30
2017-12-31T17:23:35.861Z,66.30
2017-12-31T17:26:03.556Z,66.10
2017-12-31T17:28:31.171Z,66.20
2017-12-31T17:30:58.924Z,66.50
2017-12-31T17:33:27.313Z,67.30
2017-12-31T17:35:54.940Z,67.20
2017-12-31T17:38:22.540Z,67.50
2017-12-31T17:40:50.166Z,67.90
2017-12-31T17:43:17.777Z,68.10
2017-12-31T17:45:45.435Z,69.80
2017-12-31T17:48:13.041Z,69.90
2017-12-31T17:50:40.780Z,70.00
2017-12-31T17:53:08.353Z,70.20
2017-12-31T17:55:35.960Z,70.50
2017-12-31T17:58:04.380Z,70.90
2017-12-31T18:00:31.977Z,70.80
2017-12-31T18:02:59.606Z,70.90
2017-12-31T18:05:27.215Z,71.00
2017-12-31T18:07:56.462Z,71.10
2017-12-31T18:10:24.329Z,71.00
2017-12-31T18:12:52.502Z,71.00
2017-12-31T18:15:20.132Z,70.50
2017-12-31T18:17:48.477Z,68.80
2017-12-31T18:20:16.250Z,68.80
2017-12-31T18:22:43.854Z,66.70
2017-12-31T18:25:11.484Z,66.50
2017-12-31T18:27:39.776Z,66.40
2017-12-31T18:30:08.039Z,67.00
2017-12-31T18:32:35.537Z,68.00
2017-12-31T18:35:03.047Z,68.30
2017-12-31T18:37:30.538Z,68.50
2017-12-31T18:39:58.799Z,69.40
2017-12-31T18:42:27.078Z,69.60
2017-12-31T18:44:55.350Z,69.60
2017-12-31T18:47:23.630Z,70.00
2017-12-31T18:49:51.898Z,70.30
2017-12-31T18:52:19.423Z,70.20
2017-12-31T18:54:46.911Z,70.60
2017-12-31T18:57:14.430Z,70.60
2017-12-31T18:59:41.926Z,70.70
2017-12-31T19:02:10.930Z,72.40
2017-12-31T19:04:39.186Z,73.80
2017-12-31T19:07:07.456Z,72.60
2017-12-31T19:09:34.950Z,72.70
2017-12-31T19:12:03.210Z,71.20
2017-12-31T19:14:30.706Z,71.20
2017-12-31T19:16:58.391Z,69.50
2017-12-31T19:19:25.902Z,68.60
2017-12-31T19:21:54.154Z,68.70
2017-12-31T19:24:21.651Z,68.60
2017-12-31T19:26:49.301Z,69.10
2017-12-31T19:29:17.562Z,69.40
2017-12-31T19:31:45.823Z,69.10
2017-12-31T19:34:13.311Z,69.30
2017-12-31T19:36:41.789Z,69.40
2017-12-31T19:39:10.042Z,69.60
2017-12-31T19:41:37.534Z,69.60
2017-12-31T19:44:05.048Z,69.60
2017-12-31T19:46:32.563Z,70.20
2017-12-31T19:49:00.063Z,70.50
2017-12-31T19:51:27.553Z,71.30
2017-12-31T19:53:55.810Z,70.80
2017-12-31T19:56:23.330Z,70.70
2017-12-31T19:58:50.883Z,70.70
2017-12-31T20:01:18.378Z,70.80
2017-12-31T20:03:45.982Z,71.10
2017-12-31T20:06:13.515Z,71.00
2017-12-31T20:08:41.023Z,71.00
2017-12-31T20:11:08.506Z,70.80
2017-12-31T20:13:36.003Z,71.30
2017-12-31T20:16:04.254Z,71.90
2017-12-31T20:18:32.510Z,72.40
2017-12-31T20:21:00.017Z,72.40
2017-12-31T20:23:28.271Z,72.10
2017-12-31T20:25:55.943Z,72.00
2017-12-31T20:28:24.297Z,72.30
2017-12-31T20:30:51.816Z,72.10
2017-12-31T20:33:19.369Z,72.30
2017-12-31T20:35:46.915Z,72.20
2017-12-31T20:38:15.205Z,71.00
2017-12-31T20:40:42.692Z,71.00
2017-12-31T20:43:10.182Z,70.50
2017-12-31T20:45:37.739Z,70.30
2017-12-31T20:48:05.283Z,70.10
2017-12-31T20:50:32.842Z,70.50
2017-12-31T20:53:00.354Z,71.40
2017-12-31T20:55:27.894Z,71.10
2017-12-31T20:57:56.166Z,70.30
2017-12-31T21:00:24.453Z,69.80
2017-12-31T21:02:52.757Z,69.80
2017-12-31T21:05:20.252Z,69.70
2017-12-31T21:07:47.763Z,70.20
2017-12-31T21:10:15.262Z,70.50
2017-12-31T21:12:42.780Z,70.50
2017-12-31T21:15:10.291Z,70.30
2017-12-31T21:17:37.811Z,70.70
2017-12-31T21:20:05.564Z,71.70
2017-12-31T21:22:33.094Z,71.30
2017-12-31T21:25:01.375Z,71.30
2017-12-31T21:27:29.873Z,71.90
2017-12-31T21:29:57.402Z,71.90
2017-12-31T21:32:24.912Z,72.40
2017-12-31T21:34:52.449Z,72.50
2017-12-31T21:37:19.984Z,72.70
2017-12-31T21:39:48.272Z,73.90
2017-12-31T21:42:16.618Z,74.20
2017-12-31T21:44:44.133Z,74.20
2017-12-31T21:47:11.630Z,73.90
2017-12-31T21:49:39.135Z,73.60
2017-12-31T21:52:06.666Z,73.40
2017-12-31T21:54:34.159Z,73.30
2017-12-31T21:57:01.720Z,72.40
2017-12-31T21:59:29.379Z,72.70
2017-12-31T22:01:57.039Z,72.20
2017-12-31T22:04:24.543Z,71.90
2017-12-31T22:06:52.094Z,71.70
2017-12-31T22:09:19.610Z,71.40
2017-12-31T22:11:47.272Z,71.40
2017-12-31T22:14:14.795Z,71.30
2017-12-31T22:16:42.295Z,71.20
2017-12-31T22:19:09.816Z,71.40
2017-12-31T22:21:37.308Z,71.60
2017-12-31T22:24:04.856Z,72.20
2017-12-31T22:26:33.177Z,72.80
2017-12-31T22:29:00.681Z,72.70
2017-12-31T22:31:28.211Z,72.50
2017-12-31T22:33:55.694Z,72.90
2017-12-31T22:36:23.207Z,73.20
2017-12-31T22:38:50.697Z,72.80
2017-12-31T22:41:18.195Z,72.50
2017-12-31T22:43:45.701Z,72.20
2017-12-31T22:46:13.190Z,71.70
2017-12-31T22:48:41.462Z,72.80
2017-12-31T22:51:08.982Z,71.90
2017-12-31T22:53:36.495Z,71.90
2017-12-31T22:56:04.759Z,71.60
2017-12-31T22:58:33.018Z,71.80
2017-12-31T23:01:00.531Z,71.70
2017-12-31T23:03:28.022Z,71.50
2017-12-31T23:05:55.548Z,71.20
2017-12-31T23:08:23.019Z,71.20
2017-12-31T23:10:50.780Z,71.30
2017-12-31T23:13:18.286Z,71.50
2017-12-31T23:15:45.800Z,71.20
2017-12-31T23:18:13.303Z,71.10
2017-12-31T23:20:41.574Z,71.00
2017-12-31T23:23:09.066Z,70.90
2017-12-31T23:25:36.563Z,71.10
2017-12-31T23:28:04.074Z,71.70
2017-12-31T23:30:31.598Z,71.80
2017-12-31T23:32:59.101Z,71.70
2017-12-31T23:35:26.610Z,72.00
2017-12-31T23:37:54.119Z,72.10
2017-12-31T23:40:21.654Z,71.80
2017-12-31T23:42:49.942Z,71.80
2017-12-31T23:45:18.211Z,72.00
2017-12-31T23:47:46.485Z,72.40
2017-12-31T23:50:14.971Z,71.90
2017-12-31T23:52:43.277Z,71.50
2017-12-31T23:55:10.787Z,71.50
2017-12-31T23:57:38.296Z,71.40
